createdAt,value
2016-02-17T00:00:06.683Z,55.24
2016-02-17T00:01:06.811Z,55.34
2016-02-17T00:02:06.782Z,55.15
2016-02-17T00:03:06.769Z,55.53
2016-02-17T00:04:06.724Z,55.34
2016-02-17T00:05:06.713Z,54.86
2016-02-17T00:06:06.684Z,55.15
2016-02-17T00:07:06.655Z,55.34
2016-02-17T00:08:06.643Z,55.15
2016-02-17T00:09:06.613Z,55.62
2016-02-17T00:10:06.601Z,55.43
2016-02-17T00:11:06.571Z,55.34
2016-02-17T00:12:06.544Z,55.24
2016-02-17T00:13:06.515Z,55.15
2016-02-17T00:14:06.487Z,55.62
2016-02-17T00:15:06.458Z,55.82
2016-02-17T00:16:06.429Z,55.72
2016-02-17T00:17:06.432Z,55.53
2016-02-17T00:18:06.387Z,55.62
2016-02-17T00:19:06.359Z,55.62
2016-02-17T00:20:06.346Z,55.43
2016-02-17T00:21:06.317Z,55.24
2016-02-17T00:22:06.289Z,55.53
2016-02-17T00:23:06.261Z,55.53
2016-02-17T00:24:06.231Z,55.62
2016-02-17T00:25:06.391Z,55.62
2016-02-17T00:26:06.175Z,55.62
2016-02-17T00:27:06.178Z,55.62
2016-02-17T00:28:06.150Z,55.82
2016-02-17T00:29:06.120Z,55.72
2016-02-17T00:30:06.097Z,55.82
2016-02-17T00:31:06.068Z,55.91
2016-02-17T00:32:06.040Z,55.82
2016-02-17T00:33:06.011Z,55.72
2016-02-17T00:34:05.999Z,55.62
2016-02-17T00:35:05.969Z,55.72
2016-02-17T00:36:05.941Z,55.62
2016-02-17T00:37:05.929Z,55.62
2016-02-17T00:38:05.884Z,55.62
2016-02-17T00:39:05.871Z,55.72
2016-02-17T00:40:05.826Z,55.62
2016-02-17T00:41:05.815Z,55.72
2016-02-17T00:42:05.785Z,55.72
2016-02-17T00:43:05.773Z,55.62
2016-02-17T00:44:05.759Z,55.72
2016-02-17T00:45:05.715Z,55.43
2016-02-17T00:46:05.703Z,55.62
2016-02-17T00:47:05.690Z,55.62
2016-02-17T00:48:05.629Z,55.72
2016-02-17T00:49:05.617Z,55.53
2016-02-17T00:50:05.589Z,55.82
2016-02-17T00:51:05.559Z,55.98
2016-02-17T00:52:05.531Z,55.62
2016-02-17T00:53:05.517Z,55.91
2016-02-17T00:54:05.490Z,55.43
2016-02-17T00:55:05.477Z,55.82
2016-02-17T00:56:05.433Z,56.07
2016-02-17T00:57:05.419Z,56.01
2016-02-17T00:58:05.391Z,55.91
2016-02-17T00:59:05.363Z,55.72
2016-02-17T01:00:05.333Z,55.98
2016-02-17T01:01:05.305Z,55.98
2016-02-17T01:02:05.292Z,55.88
2016-02-17T01:03:05.280Z,55.91
2016-02-17T01:04:05.235Z,55.79
2016-02-17T01:05:05.207Z,55.62
2016-02-17T01:06:05.177Z,56.17
2016-02-17T01:07:05.166Z,55.82
2016-02-17T01:08:05.137Z,56.17
2016-02-17T01:09:05.108Z,56.17
2016-02-17T01:10:05.095Z,56.26
2016-02-17T01:11:05.051Z,56.29
2016-02-17T01:12:05.038Z,56.07
2016-02-17T01:13:05.025Z,55.98
2016-02-17T01:14:04.996Z,56.07
2016-02-17T01:15:04.968Z,55.98
2016-02-17T01:16:04.939Z,56.17
2016-02-17T01:17:04.957Z,56.26
2016-02-17T01:18:04.882Z,56.17
2016-02-17T01:19:04.854Z,56.17
2016-02-17T01:20:04.840Z,56.07
2016-02-17T01:21:04.812Z,55.88
2016-02-17T01:22:04.799Z,55.98
2016-02-17T01:23:04.803Z,55.98
2016-02-17T01:24:04.742Z,55.98
2016-02-17T01:25:04.714Z,55.98
2016-02-17T01:26:04.686Z,56.17
2016-02-17T01:27:04.859Z,56.17
2016-02-17T01:28:04.644Z,55.98
2016-02-17T01:29:04.615Z,56.17
2016-02-17T01:30:04.586Z,55.6
2016-02-17T01:31:04.558Z,55.79
2016-02-17T01:32:04.530Z,55.79
2016-02-17T01:33:04.516Z,55.79
2016-02-17T01:34:04.488Z,55.88
2016-02-17T01:35:04.459Z,55.88
2016-02-17T01:36:04.431Z,55.69
2016-02-17T01:37:04.418Z,55.98
2016-02-17T01:38:04.389Z,56.07
2016-02-17T01:39:04.360Z,55.79
2016-02-17T01:40:04.332Z,55.98
2016-02-17T01:41:04.304Z,56.17
2016-02-17T01:42:04.290Z,56.07
2016-02-17T01:43:04.262Z,55.98
2016-02-17T01:44:04.234Z,55.98
2016-02-17T01:45:04.205Z,56.17
2016-02-17T01:46:04.192Z,55.88
2016-02-17T01:47:04.367Z,55.88
2016-02-17T01:48:04.135Z,55.98
2016-02-17T01:49:03.950Z,55.88
2016-02-17T01:50:04.078Z,55.98
2016-02-17T01:51:04.064Z,56.07
2016-02-17T01:52:03.880Z,55.88
2016-02-17T01:53:04.008Z,56.36
2016-02-17T01:54:03.979Z,55.98
2016-02-17T01:55:03.950Z,55.79
2016-02-17T01:56:03.937Z,55.98
2016-02-17T01:57:03.909Z,56.46
2016-02-17T01:58:03.881Z,55.69
2016-02-17T01:59:03.852Z,56.36
2016-02-17T02:00:03.823Z,55.88
2016-02-17T02:01:03.811Z,56.07
2016-02-17T02:02:03.782Z,55.98
2016-02-17T02:03:03.769Z,55.98
2016-02-17T02:04:03.724Z,56.46
2016-02-17T02:05:03.696Z,55.69
2016-02-17T02:06:03.699Z,56.55
2016-02-17T02:07:03.654Z,56.36
2016-02-17T02:08:03.627Z,56.36
2016-02-17T02:09:03.613Z,55.88
2016-02-17T02:10:03.585Z,55.88
2016-02-17T02:11:03.557Z,56.36
2016-02-17T02:12:03.527Z,55.98
2016-02-17T02:13:03.499Z,55.88
2016-02-17T02:14:03.471Z,56.36
2016-02-17T02:15:03.457Z,55.98
2016-02-17T02:16:03.429Z,56.17
2016-02-17T02:17:03.401Z,55.98
2016-02-17T02:18:03.435Z,55.88
2016-02-17T02:19:03.343Z,55.98
2016-02-17T02:20:03.330Z,56.17
2016-02-17T02:21:03.301Z,56.36
2016-02-17T02:22:03.273Z,56.46
2016-02-17T02:23:03.245Z,56.07
2016-02-17T02:24:03.216Z,55.88
2016-02-17T02:25:03.203Z,56.46
2016-02-17T02:26:03.176Z,56.46
2016-02-17T02:27:03.147Z,55.98
2016-02-17T02:28:03.118Z,55.88
2016-02-17T02:29:03.090Z,56.07
2016-02-17T02:30:03.077Z,55.98
2016-02-17T02:31:03.048Z,55.98
2016-02-17T02:32:03.020Z,55.98
2016-02-17T02:33:03.006Z,56.07
2016-02-17T02:34:02.979Z,55.98
2016-02-17T02:35:02.950Z,56.36
2016-02-17T02:36:02.921Z,55.88
2016-02-17T02:37:02.892Z,56.36
2016-02-17T02:38:02.880Z,55.69
2016-02-17T02:39:02.851Z,56.36
2016-02-17T02:40:02.822Z,56.07
2016-02-17T02:41:02.794Z,55.98
2016-02-17T02:42:02.766Z,56.17
2016-02-17T02:43:02.737Z,56.26
2016-02-17T02:44:02.724Z,56.07
2016-02-17T02:45:02.695Z,56.17
2016-02-17T02:46:02.667Z,55.6
2016-02-17T02:47:02.655Z,56.07
2016-02-17T02:48:02.625Z,56.17
2016-02-17T02:49:02.613Z,56.36
2016-02-17T02:50:02.583Z,55.79
2016-02-17T02:51:02.555Z,55.98
2016-02-17T02:52:02.527Z,55.79
2016-02-17T02:53:02.482Z,55.98
2016-02-17T02:54:02.469Z,56.26
2016-02-17T02:55:02.457Z,56.07
2016-02-17T02:56:02.429Z,56.17
2016-02-17T02:57:02.400Z,55.69
2016-02-17T02:58:02.371Z,55.88
2016-02-17T02:59:02.343Z,55.69
2016-02-17T03:00:02.314Z,56.17
2016-02-17T03:01:02.301Z,56.17
2016-02-17T03:02:02.256Z,56.07
2016-02-17T03:03:02.244Z,55.98
2016-02-17T03:04:02.215Z,55.88
2016-02-17T03:05:02.187Z,56.46
2016-02-17T03:06:02.173Z,55.98
2016-02-17T03:07:02.129Z,56.26
2016-02-17T03:08:02.117Z,56.07
2016-02-17T03:09:02.088Z,56.17
2016-02-17T03:10:02.059Z,55.88
2016-02-17T03:11:02.047Z,56.17
2016-02-17T03:12:02.003Z,56.26
2016-02-17T03:13:01.989Z,55.98
2016-02-17T03:14:01.961Z,56.26
2016-02-17T03:15:02.104Z,56.36
2016-02-17T03:16:01.904Z,55.98
2016-02-17T03:17:01.922Z,55.79
2016-02-17T03:18:01.863Z,55.88
2016-02-17T03:19:01.833Z,56.26
2016-02-17T03:20:01.805Z,55.6
2016-02-17T03:21:01.792Z,56.07
2016-02-17T03:22:01.763Z,56.36
2016-02-17T03:23:01.766Z,55.79
2016-02-17T03:24:01.707Z,56.55
2016-02-17T03:25:01.694Z,56.36
2016-02-17T03:26:01.649Z,55.98
2016-02-17T03:27:01.637Z,56.26
2016-02-17T03:28:01.624Z,56.17
2016-02-17T03:29:01.579Z,55.98
2016-02-17T03:30:01.551Z,56.07
2016-02-17T03:31:01.537Z,56.07
2016-02-17T03:32:01.510Z,56.07
2016-02-17T03:33:01.481Z,56.55
2016-02-17T03:34:01.452Z,56.26
2016-02-17T03:35:01.455Z,56.17
2016-02-17T03:36:01.395Z,56.07
2016-02-17T03:37:01.398Z,56.46
2016-02-17T03:38:01.353Z,56.36
2016-02-17T03:39:01.340Z,56.36
2016-02-17T03:40:01.297Z,56.26
2016-02-17T03:41:01.284Z,55.6
2016-02-17T03:42:01.255Z,55.6
2016-02-17T03:43:01.226Z,56.07
2016-02-17T03:44:01.213Z,56.26
2016-02-17T03:45:01.169Z,56.17
2016-02-17T03:46:01.156Z,56.65
2016-02-17T03:47:00.987Z,56.55
2016-02-17T03:48:01.099Z,56.26
2016-02-17T03:49:01.071Z,56.46
2016-02-17T03:50:01.058Z,56.65
2016-02-17T03:51:01.029Z,56.43
2016-02-17T03:52:01.000Z,56.43
2016-02-17T03:53:00.988Z,56.55
2016-02-17T03:54:00.960Z,56.84
2016-02-17T03:55:00.915Z,56.07
2016-02-17T03:56:00.902Z,56.17
2016-02-17T03:57:00.874Z,56.71
2016-02-17T03:58:00.845Z,56.07
2016-02-17T03:59:00.816Z,56.46
2016-02-17T04:00:00.818Z,56.74
2016-02-17T04:01:00.775Z,56.62
2016-02-17T04:02:00.762Z,56.55
2016-02-17T04:03:00.718Z,56.46
2016-02-17T04:04:00.690Z,56.46
2016-02-17T04:05:00.676Z,56.43
2016-02-17T04:06:00.648Z,56.43
2016-02-17T04:07:00.619Z,56.55
2016-02-17T04:08:00.590Z,56.62
2016-02-17T04:09:00.562Z,56.43
2016-02-17T04:10:00.549Z,56.46
2016-02-17T04:11:00.520Z,56.26
2016-02-17T04:12:00.492Z,56.46
2016-02-17T04:13:00.463Z,56.74
2016-02-17T04:14:00.450Z,56.04
2016-02-17T04:15:00.406Z,56.52
2016-02-17T04:16:00.425Z,56.52
2016-02-17T04:17:00.536Z,56.46
2016-02-17T04:18:00.352Z,56.14
2016-02-17T04:19:00.308Z,56.43
2016-02-17T04:20:00.294Z,56.36
2016-02-17T04:21:00.250Z,56.14
2016-02-17T04:22:00.238Z,56.43
2016-02-17T04:23:00.209Z,56.65
2016-02-17T04:24:00.196Z,56.46
2016-02-17T04:25:00.152Z,56.33
2016-02-17T04:26:00.139Z,56.62
2016-02-17T04:27:00.110Z,56.62
2016-02-17T04:28:00.097Z,56.52
2016-02-17T04:29:00.053Z,56.33
2016-02-17T04:30:00.040Z,56.71
2016-02-17T04:31:00.012Z,56.52
2016-02-17T04:32:09.015Z,56.46
2016-02-17T04:32:59.971Z,56.52
2016-02-17T04:33:59.926Z,56.65
2016-02-17T04:34:59.898Z,56.33
2016-02-17T04:35:59.884Z,56.52
2016-02-17T04:36:59.856Z,56.71
2016-02-17T04:37:59.828Z,57
2016-02-17T04:38:59.815Z,56.43
2016-02-17T04:39:59.770Z,56.52
2016-02-17T04:40:59.773Z,56.43
2016-02-17T04:41:59.791Z,56.71
2016-02-17T04:42:59.716Z,56.52
2016-02-17T04:43:59.672Z,56.62
2016-02-17T04:44:59.658Z,56.55
2016-02-17T04:45:59.631Z,56.62
2016-02-17T04:46:59.602Z,56.52
2016-02-17T04:47:59.573Z,56.43
2016-02-17T04:48:59.561Z,56.62
2016-02-17T04:49:59.516Z,56.43
2016-02-17T04:50:59.503Z,56.9
2016-02-17T04:51:59.459Z,56.52
2016-02-17T04:52:59.493Z,56.81
2016-02-17T04:53:59.433Z,56.52
2016-02-17T04:54:59.405Z,57.09
2016-02-17T04:55:59.376Z,56.9
2016-02-17T04:56:59.347Z,56.62
2016-02-17T04:57:59.318Z,57.09
2016-02-17T04:58:59.321Z,56.43
2016-02-17T04:59:59.262Z,56.43
2016-02-17T05:00:59.265Z,56.52
2016-02-17T05:01:59.221Z,56.52
2016-02-17T05:02:59.191Z,56.43
2016-02-17T05:03:59.179Z,56.62
2016-02-17T05:04:59.150Z,57.09
2016-02-17T05:05:59.121Z,57.09
2016-02-17T05:06:59.093Z,57.09
2016-02-17T05:07:59.080Z,56.9
2016-02-17T05:08:59.052Z,56.9
2016-02-17T05:09:59.007Z,57.09
2016-02-17T05:10:59.010Z,56.71
2016-02-17T05:11:58.965Z,56.9
2016-02-17T05:12:58.953Z,56.43
2016-02-17T05:13:59.174Z,56.71
2016-02-17T05:14:58.943Z,57.09
2016-02-17T05:15:58.867Z,56.81
2016-02-17T05:16:58.854Z,56.9
2016-02-17T05:17:58.811Z,57
2016-02-17T05:18:58.797Z,56.52
2016-02-17T05:19:58.753Z,56.9
2016-02-17T05:20:58.724Z,57
2016-02-17T05:21:58.711Z,57.09
2016-02-17T05:22:58.683Z,57
2016-02-17T05:23:58.655Z,56.43
2016-02-17T05:24:58.626Z,56.62
2016-02-17T05:25:58.597Z,56.81
2016-02-17T05:26:58.585Z,56.9
2016-02-17T05:27:58.555Z,57
2016-02-17T05:28:58.527Z,57
2016-02-17T05:29:58.514Z,56.81
2016-02-17T05:30:58.486Z,56.9
2016-02-17T05:31:58.473Z,56.81
2016-02-17T05:32:58.429Z,56.9
2016-02-17T05:33:58.399Z,56.33
2016-02-17T05:34:58.371Z,56.33
2016-02-17T05:35:58.359Z,56.9
2016-02-17T05:36:58.315Z,56.71
2016-02-17T05:37:58.318Z,56.81
2016-02-17T05:38:58.273Z,57
2016-02-17T05:39:58.245Z,57
2016-02-17T05:40:58.215Z,56.71
2016-02-17T05:41:58.187Z,56.81
2016-02-17T05:42:58.017Z,56.81
2016-02-17T05:43:58.146Z,56.9
2016-02-17T05:44:58.117Z,57
2016-02-17T05:45:58.104Z,56.71
2016-02-17T05:46:58.076Z,57
2016-02-17T05:47:58.047Z,56.71
2016-02-17T05:48:58.019Z,56.81
2016-02-17T05:49:57.989Z,57
2016-02-17T05:50:57.961Z,56.9
2016-02-17T05:51:57.964Z,56.81
2016-02-17T05:52:57.920Z,56.81
2016-02-17T05:53:57.892Z,56.52
2016-02-17T05:54:57.878Z,57.09
2016-02-17T05:55:57.834Z,56.62
2016-02-17T05:56:57.821Z,56.62
2016-02-17T05:57:57.793Z,56.71
2016-02-17T05:58:57.763Z,56.81
2016-02-17T05:59:57.736Z,56.81
2016-02-17T06:00:57.723Z,56.52
2016-02-17T06:01:57.679Z,56.62
2016-02-17T06:02:57.665Z,57.38
2016-02-17T06:03:57.637Z,57.67
2016-02-17T06:04:57.733Z,56.71
2016-02-17T06:05:57.579Z,57
2016-02-17T06:06:57.552Z,57
2016-02-17T06:07:57.538Z,57.48
2016-02-17T06:08:57.526Z,56.71
2016-02-17T06:09:57.481Z,56.71
2016-02-17T06:10:57.484Z,56.9
2016-02-17T06:11:57.440Z,56.81
2016-02-17T06:12:57.411Z,56.62
2016-02-17T06:13:57.383Z,57
2016-02-17T06:14:57.557Z,57.09
2016-02-17T06:15:57.341Z,56.81
2016-02-17T06:16:57.312Z,57.28
2016-02-17T06:17:57.284Z,57
2016-02-17T06:18:57.256Z,57.19
2016-02-17T06:19:57.228Z,57.38
2016-02-17T06:20:57.214Z,57
2016-02-17T06:21:57.169Z,56.9
2016-02-17T06:22:57.157Z,56.81
2016-02-17T06:23:57.129Z,57
2016-02-17T06:24:57.100Z,56.62
2016-02-17T06:25:57.072Z,56.9
2016-02-17T06:26:57.058Z,56.81
2016-02-17T06:27:57.030Z,57.09
2016-02-17T06:28:57.001Z,56.71
2016-02-17T06:29:56.972Z,57.28
2016-02-17T06:30:56.944Z,56.9
2016-02-17T06:31:56.916Z,57.38
2016-02-17T06:32:56.888Z,56.81
2016-02-17T06:33:56.905Z,56.81
2016-02-17T06:34:56.846Z,56.71
2016-02-17T06:35:56.816Z,56.81
2016-02-17T06:36:56.788Z,56.81
2016-02-17T06:37:56.759Z,56.9
2016-02-17T06:38:56.747Z,56.62
2016-02-17T06:39:56.719Z,56.81
2016-02-17T06:40:56.690Z,56.71
2016-02-17T06:41:56.662Z,56.81
2016-02-17T06:42:56.632Z,56.81
2016-02-17T06:43:56.620Z,56.71
2016-02-17T06:44:56.590Z,56.81
2016-02-17T06:45:56.562Z,57.09
2016-02-17T06:46:56.535Z,57.09
2016-02-17T06:47:56.537Z,57.09
2016-02-17T06:48:56.474Z,56.81
2016-02-17T06:49:56.477Z,56.71
2016-02-17T06:50:56.448Z,56.71
2016-02-17T06:51:56.420Z,56.9
2016-02-17T06:52:56.392Z,56.71
2016-02-17T06:53:56.394Z,57.09
2016-02-17T06:54:56.333Z,56.9
2016-02-17T06:55:56.322Z,57.48
2016-02-17T06:56:56.278Z,56.9
2016-02-17T06:57:56.264Z,56.24
2016-02-17T06:58:56.235Z,56.81
2016-02-17T06:59:56.207Z,57
2016-02-17T07:00:56.194Z,56.71
2016-02-17T07:01:56.399Z,56.71
2016-02-17T07:02:56.137Z,57
2016-02-17T07:03:56.109Z,56.81
2016-02-17T07:04:56.079Z,56.81
2016-02-17T07:05:56.051Z,56.81
2016-02-17T07:06:56.054Z,56.9
2016-02-17T07:07:56.010Z,56.9
2016-02-17T07:08:55.982Z,56.9
2016-02-17T07:09:55.953Z,57
2016-02-17T07:10:55.940Z,56.81
2016-02-17T07:11:55.911Z,57.09
2016-02-17T07:12:55.883Z,56.43
2016-02-17T07:13:55.838Z,56.52
2016-02-17T07:14:55.826Z,56.81
2016-02-17T07:15:55.796Z,56.43
2016-02-17T07:16:55.769Z,56.81
2016-02-17T07:17:55.740Z,56.71
2016-02-17T07:18:55.726Z,56.43
2016-02-17T07:19:55.698Z,56.52
2016-02-17T07:20:55.670Z,56.43
2016-02-17T07:21:55.687Z,57.09
2016-02-17T07:22:55.613Z,56.52
2016-02-17T07:23:55.599Z,56.71
2016-02-17T07:24:55.571Z,56.71
2016-02-17T07:25:55.542Z,56.71
2016-02-17T07:26:55.545Z,56.52
2016-02-17T07:27:55.501Z,56.43
2016-02-17T07:28:55.472Z,56.52
2016-02-17T07:29:55.444Z,56.33
2016-02-17T07:30:55.431Z,56.43
2016-02-17T07:31:55.386Z,56.52
2016-02-17T07:32:55.375Z,56.43
2016-02-17T07:33:55.330Z,56.52
2016-02-17T07:34:55.333Z,56.52
2016-02-17T07:35:55.288Z,56.52
2016-02-17T07:36:55.275Z,56.43
2016-02-17T07:37:55.231Z,56.14
2016-02-17T07:38:55.202Z,56.52
2016-02-17T07:39:55.190Z,56.52
2016-02-17T07:40:55.161Z,56.71
2016-02-17T07:41:55.133Z,56.52
2016-02-17T07:42:55.104Z,56.52
2016-02-17T07:43:55.091Z,56.52
2016-02-17T07:44:55.063Z,56.14
2016-02-17T07:45:55.034Z,56.43
2016-02-17T07:46:55.004Z,56.43
2016-02-17T07:47:54.993Z,56.62
2016-02-17T07:48:54.948Z,56.43
2016-02-17T07:49:54.932Z,56.24
2016-02-17T07:50:54.902Z,56.33
2016-02-17T07:51:54.842Z,56.33
2016-02-17T07:52:54.797Z,56.24
2016-02-17T07:53:54.768Z,56.04
2016-02-17T07:54:54.725Z,55.95
2016-02-17T07:55:54.689Z,56.14
2016-02-17T07:56:54.656Z,55.85
2016-02-17T07:57:54.622Z,55.76
2016-02-17T07:58:54.602Z,56.14
2016-02-17T07:59:54.569Z,56.04
2016-02-17T08:00:54.538Z,56.14
2016-02-17T08:01:54.508Z,56.14
2016-02-17T08:02:54.494Z,55.76
2016-02-17T08:03:54.697Z,55.95
2016-02-17T08:04:54.449Z,56.52
2016-02-17T08:05:54.434Z,56.33
2016-02-17T08:06:54.374Z,56.04
2016-02-17T08:07:54.376Z,56.14
2016-02-17T08:08:54.331Z,56.43
2016-02-17T08:09:54.302Z,55.95
2016-02-17T08:10:54.288Z,55.95
2016-02-17T08:11:54.259Z,56.24
2016-02-17T08:12:54.231Z,55.76
2016-02-17T08:13:54.201Z,55.5
2016-02-17T08:14:54.172Z,55.79
2016-02-17T08:15:54.160Z,55.79
2016-02-17T08:16:54.115Z,55.76
2016-02-17T08:17:54.087Z,55.57
2016-02-17T08:18:54.058Z,55.19
2016-02-17T08:19:54.046Z,55.09
2016-02-17T08:20:54.016Z,55.28
2016-02-17T08:21:54.004Z,55.41
2016-02-17T08:22:53.960Z,55.38
2016-02-17T08:23:53.931Z,55.28
2016-02-17T08:24:53.919Z,55.28
2016-02-17T08:25:53.890Z,55.47
2016-02-17T08:26:53.861Z,55.57
2016-02-17T08:27:53.849Z,55.66
2016-02-17T08:28:53.821Z,55.57
2016-02-17T08:29:53.791Z,55.19
2016-02-17T08:30:53.763Z,54.9
2016-02-17T08:31:53.750Z,55.31
2016-02-17T08:32:53.706Z,55.28
2016-02-17T08:33:53.692Z,55.21
2016-02-17T08:34:53.665Z,55.28
2016-02-17T08:35:53.635Z,55.21
2016-02-17T08:36:53.607Z,54.9
2016-02-17T08:37:53.578Z,54.9
2016-02-17T08:38:53.550Z,55.28
2016-02-17T08:39:53.537Z,55.21
2016-02-17T08:40:53.509Z,55.19
2016-02-17T08:41:53.480Z,54.83
2016-02-17T08:42:53.451Z,55.31
2016-02-17T08:43:53.439Z,55.38
2016-02-17T08:44:53.426Z,55.5
2016-02-17T08:45:53.382Z,55.31
2016-02-17T08:46:53.353Z,55.31
2016-02-17T08:47:53.340Z,55.38
2016-02-17T08:48:53.296Z,55.41
2016-02-17T08:49:53.267Z,55.28
2016-02-17T08:50:53.270Z,55.21
2016-02-17T08:51:53.225Z,55.28
2016-02-17T08:52:53.197Z,55.12
2016-02-17T08:53:53.183Z,55.5
2016-02-17T08:54:53.186Z,55.41
2016-02-17T08:55:53.127Z,55.38
2016-02-17T08:56:53.099Z,55.5
2016-02-17T08:57:53.070Z,55.57
2016-02-17T08:58:53.057Z,55.5
2016-02-17T08:59:53.029Z,55.31
2016-02-17T09:00:53.015Z,55.21
2016-02-17T09:01:52.971Z,55.02
2016-02-17T09:02:52.958Z,55.41
2016-02-17T09:03:52.946Z,55.21
2016-02-17T09:04:52.902Z,55.12
2016-02-17T09:05:52.888Z,54.55
2016-02-17T09:06:52.860Z,55.02
2016-02-17T09:07:52.815Z,55.02
2016-02-17T09:08:52.803Z,55.02
2016-02-17T09:09:52.790Z,55.02
2016-02-17T09:10:52.745Z,55.02
2016-02-17T09:11:52.717Z,54.93
2016-02-17T09:12:52.719Z,54.93
2016-02-17T09:13:52.676Z,55.12
2016-02-17T09:14:52.648Z,55.02
2016-02-17T09:15:52.634Z,54.93
2016-02-17T09:16:52.590Z,55.02
2016-02-17T09:17:52.561Z,54.83
2016-02-17T09:18:52.548Z,54.93
2016-02-17T09:19:52.550Z,55.02
2016-02-17T09:20:52.491Z,55.02
2016-02-17T09:21:52.463Z,55.02
2016-02-17T09:22:52.433Z,55.12
2016-02-17T09:23:52.422Z,54.93
2016-02-17T09:24:52.392Z,55.02
2016-02-17T09:25:52.364Z,54.83
2016-02-17T09:26:52.335Z,54.93
2016-02-17T09:27:52.322Z,54.83
2016-02-17T09:28:52.293Z,54.93
2016-02-17T09:29:52.266Z,54.74
2016-02-17T09:30:52.237Z,54.83
2016-02-17T09:31:52.224Z,54.8
2016-02-17T09:32:52.195Z,54.64
2016-02-17T09:33:52.166Z,54.74
2016-02-17T09:34:52.138Z,54.64
2016-02-17T09:35:52.109Z,54.74
2016-02-17T09:36:52.097Z,54.83
2016-02-17T09:37:52.069Z,54.74
2016-02-17T09:38:52.040Z,54.83
2016-02-17T09:39:52.012Z,54.74
2016-02-17T09:40:51.982Z,54.55
2016-02-17T09:41:51.970Z,54.83
2016-02-17T09:42:51.941Z,54.74
2016-02-17T09:43:51.928Z,54.64
2016-02-17T09:44:51.900Z,54.83
2016-02-17T09:45:51.870Z,54.64
2016-02-17T09:46:51.842Z,54.74
2016-02-17T09:47:51.829Z,54.64
2016-02-17T09:48:51.786Z,55.12
2016-02-17T09:49:51.788Z,54.74
2016-02-17T09:50:51.728Z,54.64
2016-02-17T09:51:51.715Z,54.74
2016-02-17T09:52:51.703Z,54.74
2016-02-17T09:53:51.658Z,54.93
2016-02-17T09:54:51.645Z,54.74
2016-02-17T09:55:51.647Z,54.64
2016-02-17T09:56:51.775Z,54.83
2016-02-17T09:57:51.591Z,55.12
2016-02-17T09:58:51.547Z,54.93
2016-02-17T09:59:51.519Z,54.93
2016-02-17T10:00:51.474Z,54.83
2016-02-17T10:01:51.461Z,54.45
2016-02-17T10:02:51.464Z,54.26
2016-02-17T10:03:51.404Z,54.74
2016-02-17T10:04:51.390Z,54.45
2016-02-17T10:05:51.393Z,54.74
2016-02-17T10:06:51.334Z,54.45
2016-02-17T10:07:51.321Z,54.55
2016-02-17T10:08:51.307Z,54.36
2016-02-17T10:09:51.263Z,54.64
2016-02-17T10:10:51.251Z,54.45
2016-02-17T10:11:51.222Z,54.45
2016-02-17T10:12:51.193Z,54.55
2016-02-17T10:13:51.165Z,53.97
2016-02-17T10:14:51.136Z,54.26
2016-02-17T10:15:51.109Z,53.97
2016-02-17T10:16:51.079Z,54.55
2016-02-17T10:17:51.129Z,53.88
2016-02-17T10:18:51.037Z,54.17
2016-02-17T10:19:51.009Z,53.78
2016-02-17T10:20:50.997Z,54.07
2016-02-17T10:21:50.967Z,54.36
2016-02-17T10:22:50.939Z,54.17
2016-02-17T10:23:50.895Z,54.07
2016-02-17T10:24:50.882Z,54.07
2016-02-17T10:25:50.869Z,53.97
2016-02-17T10:26:50.841Z,54.17
2016-02-17T10:27:50.812Z,54.07
2016-02-17T10:28:50.783Z,54.07
2016-02-17T10:29:50.771Z,53.88
2016-02-17T10:30:50.727Z,54.36
2016-02-17T10:31:50.730Z,53.97
2016-02-17T10:32:50.685Z,54.07
2016-02-17T10:33:50.672Z,54.26
2016-02-17T10:34:50.628Z,53.97
2016-02-17T10:35:50.599Z,53.97
2016-02-17T10:36:50.586Z,53.59
2016-02-17T10:37:50.574Z,54.17
2016-02-17T10:38:50.530Z,53.97
2016-02-17T10:39:50.517Z,53.69
2016-02-17T10:40:50.504Z,53.97
2016-02-17T10:41:50.460Z,53.88
2016-02-17T10:42:50.650Z,53.97
2016-02-17T10:43:50.859Z,53.78
2016-02-17T10:44:50.490Z,53.88
2016-02-17T10:45:50.353Z,53.59
2016-02-17T10:46:50.456Z,53.78
2016-02-17T10:47:51.800Z,53.59
2016-02-17T10:48:50.287Z,53.69
2016-02-17T10:49:50.274Z,53.59
2016-02-17T10:50:50.231Z,53.88
2016-02-17T10:51:50.217Z,53.88
2016-02-17T10:52:50.392Z,53.88
2016-02-17T10:53:50.161Z,53.78
2016-02-17T10:54:50.133Z,53.97
2016-02-17T10:55:50.103Z,53.78
2016-02-17T10:56:50.085Z,53.5
2016-02-17T10:57:50.057Z,53.31
2016-02-17T10:58:50.027Z,53.59
2016-02-17T10:59:50.015Z,53.41
2016-02-17T11:00:50.002Z,53.5
2016-02-17T11:01:49.957Z,53.78
2016-02-17T11:02:49.945Z,53.78
2016-02-17T11:03:49.932Z,53.31
2016-02-17T11:04:49.919Z,53.31
2016-02-17T11:05:49.124Z,53.21
2016-02-17T11:06:49.846Z,53.41
2016-02-17T11:07:49.818Z,53.41
2016-02-17T11:08:50.007Z,53.53
2016-02-17T11:09:49.980Z,53.43
2016-02-17T11:10:49.857Z,53.31
2016-02-17T11:11:49.720Z,53.41
2016-02-17T11:12:49.831Z,53.05
2016-02-17T11:13:49.662Z,53.24
2016-02-17T11:14:49.649Z,53.24
2016-02-17T11:15:50.027Z,52.67
2016-02-17T11:16:49.593Z,52.95
2016-02-17T11:17:49.564Z,53.24
2016-02-17T11:18:49.582Z,53.33
2016-02-17T11:19:49.522Z,53.14
2016-02-17T11:20:49.494Z,53.24
2016-02-17T11:21:49.512Z,53.33
2016-02-17T11:22:49.437Z,53.05
2016-02-17T11:23:49.423Z,53.24
2016-02-17T11:24:49.395Z,53.24
2016-02-17T11:25:49.367Z,53.24
2016-02-17T11:26:49.353Z,53.14
2016-02-17T11:27:49.341Z,53.33
2016-02-17T11:28:49.297Z,53.14
2016-02-17T11:29:49.269Z,52.95
2016-02-17T11:30:49.255Z,52.76
2016-02-17T11:31:49.227Z,52.76
2016-02-17T11:32:49.198Z,52.76
2016-02-17T11:33:49.186Z,52.67
2016-02-17T11:34:49.157Z,52.67
2016-02-17T11:35:49.128Z,53.05
2016-02-17T11:36:49.099Z,52.57
2016-02-17T11:37:49.102Z,52.28
2016-02-17T11:38:49.057Z,52.19
2016-02-17T11:39:49.045Z,52.48
2016-02-17T11:40:49.013Z,52.19
2016-02-17T11:41:48.813Z,52.38
2016-02-17T11:42:48.957Z,52.67
2016-02-17T11:43:48.929Z,52.28
2016-02-17T11:44:49.165Z,52.38
2016-02-17T11:45:48.887Z,52.19
2016-02-17T11:46:48.858Z,52.48
2016-02-17T11:47:48.846Z,52.19
2016-02-17T11:48:48.833Z,52.19
2016-02-17T11:49:48.898Z,52.19
2016-02-17T11:50:48.759Z,52.09
2016-02-17T11:51:48.732Z,52.28
2016-02-17T11:52:48.718Z,51.93
2016-02-17T11:53:48.690Z,52
2016-02-17T11:54:48.677Z,51.93
2016-02-17T11:55:48.648Z,51.83
2016-02-17T11:56:48.635Z,51.9
2016-02-17T11:57:48.592Z,51.81
2016-02-17T11:58:48.562Z,52.03
2016-02-17T11:59:48.394Z,51.74
2016-02-17T12:00:48.365Z,51.83
2016-02-17T12:01:48.492Z,51.83
2016-02-17T12:02:48.574Z,51.93
2016-02-17T12:03:48.451Z,51.74
2016-02-17T12:04:48.454Z,51.64
2016-02-17T12:05:48.415Z,51.54
2016-02-17T12:06:48.417Z,51.17
2016-02-17T12:07:48.357Z,51.26
2016-02-17T12:08:48.344Z,50.59
2016-02-17T12:09:48.316Z,50.88
2016-02-17T12:10:48.288Z,50.88
2016-02-17T12:11:48.274Z,50.59
2016-02-17T12:12:48.230Z,50.78
2016-02-17T12:13:48.218Z,50.59
2016-02-17T12:14:48.205Z,50.31
2016-02-17T12:15:48.176Z,50.4
2016-02-17T12:16:48.147Z,50.59
2016-02-17T12:17:48.118Z,50.69
2016-02-17T12:18:48.107Z,50.4
2016-02-17T12:19:48.093Z,50.59
2016-02-17T12:20:48.048Z,50.21
2016-02-17T12:21:48.036Z,50.12
2016-02-17T12:22:48.038Z,49.85
2016-02-17T12:23:47.979Z,50.04
2016-02-17T12:24:47.965Z,49.76
2016-02-17T12:25:47.953Z,49.66
2016-02-17T12:26:47.909Z,49.57
2016-02-17T12:27:47.896Z,49.85
2016-02-17T12:28:47.867Z,49.85
2016-02-17T12:29:47.838Z,49.66
2016-02-17T12:30:47.810Z,49.38
2016-02-17T12:31:47.797Z,49.47
2016-02-17T12:32:47.784Z,49.18
2016-02-17T12:33:47.756Z,49.18
2016-02-17T12:34:47.727Z,49.28
2016-02-17T12:35:47.698Z,49.38
2016-02-17T12:36:47.686Z,49.09
2016-02-17T12:37:47.657Z,49.09
2016-02-17T12:38:47.628Z,49.09
2016-02-17T12:39:47.616Z,48.9
2016-02-17T12:40:47.587Z,48.93
2016-02-17T12:41:47.558Z,48.93
2016-02-17T12:42:47.546Z,48.54
2016-02-17T12:43:47.533Z,48.83
2016-02-17T12:44:47.504Z,48.54
2016-02-17T12:45:47.804Z,48.54
2016-02-17T12:46:47.447Z,48.25
2016-02-17T12:47:47.418Z,48.16
2016-02-17T12:48:47.421Z,47.58
2016-02-17T12:49:47.393Z,47.87
2016-02-17T12:50:47.363Z,47.87
2016-02-17T12:51:47.335Z,47.68
2016-02-17T12:52:47.323Z,47.11
2016-02-17T12:53:47.293Z,47.32
2016-02-17T12:54:47.265Z,46.94
2016-02-17T12:55:47.252Z,47.03